Time;durP1;ratioP1;P1;durP2;ratioP2;P2;SDS_P1;SDS_P2;PMS_P1;PMS_P2;Temp;Humidity;BMP_temperature;BMP_pressure;BME280_temperature;BME280_humidity;BME280_pressure;Samples;Min_cycle;Max_cycle;Signal;HPM_P1;HPM_P2
2022/03/13 00:00:36;;;;;;;15.30;9.95;;;;;;;3.92;61.67;99378.78;5046061;28;20163;-55
2022/03/13 00:03:09;;;;;;;15.32;9.93;;;;;;;3.78;61.78;99379.69;5052380;28;20039;-55
2022/03/13 00:05:36;;;;;;;19.35;10.32;;;;;;;3.44;64.16;99368.03;5047605;28;20037;-54
2022/03/13 00:08:02;;;;;;;19.75;10.13;;;;;;;3.42;62.48;99357.66;5049819;28;20040;-54
2022/03/13 00:10:28;;;;;;;16.17;10.43;;;;;;;3.12;66.78;99364.97;5053349;28;20028;-53
2022/03/13 00:12:54;;;;;;;21.58;12.20;;;;;;;2.84;68.62;99358.78;5055890;28;20021;-53
2022/03/13 00:15:35;;;;;;;23.95;12.50;;;;;;;2.43;71.56;99362.03;5050397;28;20132;-54
2022/03/13 00:18:01;;;;;;;21.48;13.00;;;;;;;2.28;71.39;99362.06;5060957;28;20113;-52
2022/03/13 00:20:27;;;;;;;28.05;15.35;;;;;;;2.09;72.25;99353.69;5049373;28;20036;-55
2022/03/13 00:22:54;;;;;;;34.88;18.45;;;;;;;1.96;73.10;99358.81;5059453;28;20029;-54
2022/03/13 00:25:20;;;;;;;31.35;17.73;;;;;;;2.14;74.56;99363.72;5051275;28;20044;-54
2022/03/13 00:27:46;;;;;;;31.20;16.42;;;;;;;2.13;76.13;99349.66;5053830;28;20025;-53
2022/03/13 00:30:11;;;;;;;31.45;15.73;;;;;;;2.19;73.18;99348.09;5052707;28;20090;-53
2022/03/13 00:32:37;;;;;;;31.67;14.50;;;;;;;2.22;72.78;99342.47;5050347;28;20037;-54
2022/03/13 00:35:03;;;;;;;33.03;15.40;;;;;;;2.11;70.46;99350.88;5087340;28;20434;-55
2022/03/13 00:37:28;;;;;;;28.50;14.27;;;;;;;2.07;70.31;99342.50;5050591;28;20177;-54
2022/03/13 00:39:56;;;;;;;21.70;12.25;;;;;;;1.98;69.53;99345.41;5047430;28;20455;-53
2022/03/13 00:42:22;;;;;;;20.48;12.35;;;;;;;1.99;69.00;99339.13;5050485;28;20024;-52
2022/03/13 00:44:49;;;;;;;21.73;10.43;;;;;;;2.17;68.44;99339.53;5047769;28;20467;-54
2022/03/13 00:47:14;;;;;;;16.05;9.98;;;;;;;2.31;63.15;99336.03;5052285;28;20485;-56
2022/03/13 00:49:40;;;;;;;18.10;9.65;;;;;;;2.69;63.67;99348.25;5082659;28;20033;-51
2022/03/13 00:52:05;;;;;;;18.77;9.65;;;;;;;2.64;61.57;99340.88;5049750;28;20053;-51
2022/03/13 00:54:33;;;;;;;17.00;10.32;;;;;;;2.64;67.30;99351.44;5048481;28;20108;-51
2022/03/13 00:56:58;;;;;;;18.98;10.73;;;;;;;2.47;68.28;99340.31;5055520;28;20033;-54
2022/03/13 00:59:24;;;;;;;27.92;14.68;;;;;;;2.32;69.11;99343.00;5056058;28;20025;-58
2022/03/13 01:01:49;;;;;;;61.97;26.35;;;;;;;2.34;71.79;99348.88;5045113;28;20490;-54
2022/03/13 01:04:15;;;;;;;41.40;19.23;;;;;;;2.10;70.55;99323.59;5050761;28;20025;-54
2022/03/13 01:06:41;;;;;;;34.33;16.45;;;;;;;1.97;70.16;99343.75;5050672;28;20383;-54
2022/03/13 01:09:06;;;;;;;29.42;15.52;;;;;;;2.03;74.00;99343.03;5056319;28;20033;-53
2022/03/13 01:11:32;;;;;;;36.65;16.85;;;;;;;1.71;71.23;99337.94;5048518;28;20029;-54
2022/03/13 01:13:57;;;;;;;43.53;21.55;;;;;;;1.79;71.12;99337.03;5057192;28;20632;-53
2022/03/13 01:16:25;;;;;;;48.75;22.00;;;;;;;1.75;69.84;99341.06;5055090;28;20090;-55
2022/03/13 01:18:55;;;;;;;41.50;18.48;;;;;;;1.87;68.47;99336.94;5050410;28;20029;-50
2022/03/13 01:21:21;;;;;;;34.33;16.60;;;;;;;1.91;69.46;99337.38;5053607;28;20028;-50
2022/03/13 01:24:05;;;;;;;31.55;16.50;;;;;;;1.85;73.72;99336.31;5057674;28;20348;-51
2022/03/13 01:26:34;;;;;;;31.17;17.00;;;;;;;1.73;70.93;99330.66;5056807;28;20033;-50
2022/03/13 01:29:01;;;;;;;32.97;17.13;;;;;;;1.57;71.04;99330.81;5059444;28;20040;-51
2022/03/13 01:31:28;;;;;;;32.25;16.45;;;;;;;1.55;73.11;99332.00;5056102;28;20124;-53
2022/03/13 01:33:53;;;;;;;32.97;17.33;;;;;;;1.44;72.32;99328.00;5050414;28;20033;-53
2022/03/13 01:36:19;;;;;;;36.70;15.95;;;;;;;1.38;71.40;99328.72;5049334;28;20108;-53
2022/03/13 01:38:44;;;;;;;28.95;14.55;;;;;;;1.69;70.72;99328.56;5056308;28;20070;-51
2022/03/13 01:41:09;;;;;;;32.00;15.65;;;;;;;1.80;69.69;99322.81;5054484;28;20028;-54
2022/03/13 01:43:35;;;;;;;29.85;15.05;;;;;;;1.82;68.58;99326.13;5052185;28;20037;-51
2022/03/13 01:46:01;;;;;;;26.27;14.20;;;;;;;1.82;68.63;99320.81;5053808;28;20106;-53
2022/03/13 01:48:27;;;;;;;28.48;14.80;;;;;;;1.88;68.57;99320.06;5054357;28;20406;-51
2022/03/13 01:50:52;;;;;;;30.95;14.68;;;;;;;1.86;68.46;99316.78;5052768;28;20429;-52
2022/03/13 01:53:21;;;;;;;27.42;14.15;;;;;;;1.98;69.13;99327.72;5049049;28;20079;-53
2022/03/13 01:55:54;;;;;;;26.63;13.75;;;;;;;1.82;69.46;99320.81;5049022;28;20523;-51
2022/03/13 01:58:20;;;;;;;25.50;14.20;;;;;;;1.70;70.24;99322.28;5049662;28;20048;-52
2022/03/13 02:00:46;;;;;;;23.33;14.00;;;;;;;1.69;70.51;99323.28;5048733;28;20032;-51
2022/03/13 02:03:12;;;;;;;25.05;13.07;;;;;;;1.67;70.19;99319.97;5047833;28;20402;-53
2022/03/13 02:05:37;;;;;;;30.27;13.50;;;;;;;1.76;69.22;99318.91;5057974;28;20064;-53
2022/03/13 02:08:12;;;;;;;24.13;13.98;;;;;;;1.80;67.46;99308.78;5061168;28;20082;-51
2022/03/13 02:10:37;;;;;;;24.90;13.88;;;;;;;1.81;69.01;99298.03;5053285;28;20051;-51
2022/03/13 02:13:03;;;;;;;24.20;13.98;;;;;;;1.70;69.30;99301.16;5051109;28;20020;-53
2022/03/13 02:15:29;;;;;;;24.23;13.52;;;;;;;1.53;70.40;99292.59;5057622;28;20197;-52
2022/03/13 02:17:54;;;;;;;24.98;13.77;;;;;;;1.42;71.30;99295.66;5060672;28;20020;-51
2022/03/13 02:20:26;;;;;;;27.48;14.18;;;;;;;1.41;71.80;99296.66;5053892;28;20494;-53
2022/03/13 02:22:53;;;;;;;25.17;14.23;;;;;;;1.55;69.78;99289.75;5048937;28;20029;-53
2022/03/13 02:25:21;;;;;;;25.05;13.82;;;;;;;1.64;69.26;99280.72;5059623;28;20111;-53
2022/03/13 02:27:46;;;;;;;26.10;14.23;;;;;;;1.81;68.47;99276.88;5050685;28;20032;-54
2022/03/13 02:30:12;;;;;;;24.13;12.50;;;;;;;1.93;69.55;99271.94;5053968;28;20040;-53
2022/03/13 02:32:37;;;;;;;26.05;13.57;;;;;;;1.85;68.31;99280.81;5083477;28;20037;-54
2022/03/13 02:35:03;;;;;;;25.63;13.82;;;;;;;1.69;69.26;99273.06;5054691;28;20052;-51
2022/03/13 02:37:38;;;;;;;25.20;14.35;;;;;;;1.49;70.19;99278.91;5056528;28;20048;-50
2022/03/13 02:40:04;;;;;;;21.73;12.38;;;;;;;1.66;69.61;99268.16;5053381;28;20032;-51
2022/03/13 02:42:29;;;;;;;20.75;12.00;;;;;;;1.96;69.05;99278.69;5054212;28;20028;-53
2022/03/13 02:44:55;;;;;;;23.00;12.93;;;;;;;2.06;69.16;99264.16;5046051;28;20407;-53
2022/03/13 02:47:20;;;;;;;20.27;11.38;;;;;;;2.30;67.47;99267.47;5053277;28;20029;-59
2022/03/13 02:49:46;;;;;;;20.17;10.65;;;;;;;2.47;68.41;99265.38;5055194;28;20494;-54
2022/03/13 02:52:11;;;;;;;21.23;12.25;;;;;;;2.15;67.02;99262.22;5051624;28;20048;-54
2022/03/13 02:54:37;;;;;;;18.63;10.65;;;;;;;1.97;67.81;99270.56;5053670;28;20078;-53
2022/03/13 02:57:02;;;;;;;20.52;12.05;;;;;;;1.76;70.60;99260.75;5047910;28;20032;-54
2022/03/13 02:59:28;;;;;;;22.95;13.20;;;;;;;1.44;71.11;99262.78;5055786;28;20028;-51
2022/03/13 03:01:53;;;;;;;25.88;11.60;;;;;;;1.40;71.11;99264.16;5038099;28;20024;-53
2022/03/13 03:04:22;;;;;;;21.40;12.35;;;;;;;1.49;70.78;99263.06;5055072;28;20059;-52
2022/03/13 03:06:53;;;;;;;22.75;12.27;;;;;;;1.70;72.89;99266.78;5048233;28;20472;-54
2022/03/13 03:09:19;;;;;;;19.85;12.20;;;;;;;1.54;70.34;99264.34;5048148;28;20037;-52
2022/03/13 03:11:44;;;;;;;20.70;12.70;;;;;;;1.37;71.54;99268.97;5047665;28;20044;-52
2022/03/13 03:14:10;;;;;;;21.27;12.73;;;;;;;1.08;72.85;99266.13;5047147;28;20036;-53
2022/03/13 03:16:36;;;;;;;22.98;13.20;;;;;;;0.93;74.24;99267.94;5051201;28;20040;-53
2022/03/13 03:19:01;;;;;;;28.65;13.80;;;;;;;0.64;74.81;99268.66;5047192;28;20646;-53
2022/03/13 03:21:27;;;;;;;21.00;12.32;;;;;;;0.70;74.68;99267.13;5051438;28;20029;-54
2022/03/13 03:23:52;;;;;;;21.95;11.93;;;;;;;0.80;73.74;99267.72;5057471;28;20041;-53
2022/03/13 03:26:18;;;;;;;23.98;12.77;;;;;;;0.88;73.42;99270.28;5059501;28;20020;-54
2022/03/13 03:28:44;;;;;;;22.20;12.45;;;;;;;1.02;73.87;99273.94;5054560;28;20120;-53
2022/03/13 03:31:10;;;;;;;25.95;12.00;;;;;;;1.00;72.55;99268.88;5049599;28;20112;-52
2022/03/13 03:33:35;;;;;;;19.40;11.50;;;;;;;0.97;71.44;99271.03;5056360;28;20190;-52
2022/03/13 03:36:01;;;;;;;23.65;12.18;;;;;;;0.95;73.11;99271.22;5047514;28;20071;-53
2022/03/13 03:38:26;;;;;;;21.83;12.57;;;;;;;0.82;73.93;99271.00;5054288;28;20398;-53
2022/03/13 03:40:52;;;;;;;20.75;12.70;;;;;;;0.74;76.19;99276.34;5052109;28;20025;-53
2022/03/13 03:43:17;;;;;;;24.30;11.07;;;;;;;0.63;73.11;99273.13;5057804;28;20021;-54
2022/03/13 03:45:42;;;;;;;19.85;11.32;;;;;;;0.97;73.47;99279.75;5047263;28;20048;-53
2022/03/13 03:48:08;;;;;;;21.00;11.30;;;;;;;1.13;74.77;99278.00;5047884;28;20107;-53
2022/03/13 03:50:33;;;;;;;25.25;14.10;;;;;;;1.16;74.68;99272.34;5053232;28;20408;-53
2022/03/13 03:52:59;;;;;;;24.05;12.55;;;;;;;1.12;75.92;99266.59;5050705;28;20474;-53
2022/03/13 03:55:25;;;;;;;19.48;12.32;;;;;;;0.92;75.52;99266.28;5051084;28;20690;-52
2022/03/13 03:57:50;;;;;;;23.30;13.07;;;;;;;1.03;76.44;99257.94;5053590;28;20040;-53
2022/03/13 04:00:16;;;;;;;25.13;11.75;;;;;;;0.91;75.05;99256.72;5062612;28;20033;-51
2022/03/13 04:02:42;;;;;;;23.08;12.50;;;;;;;1.06;75.80;99252.28;5047212;28;20025;-53
2022/03/13 04:05:08;;;;;;;21.88;13.80;;;;;;;1.26;76.62;99251.78;5050306;28;20028;-50
2022/03/13 04:07:33;;;;;;;25.48;14.00;;;;;;;1.44;76.11;99254.84;5049208;28;20025;-53
2022/03/13 04:09:59;;;;;;;24.08;12.68;;;;;;;1.65;75.31;99246.22;5053397;28;20036;-53
2022/03/13 04:12:25;;;;;;;21.80;13.38;;;;;;;1.29;76.06;99246.13;5056938;28;20037;-53
2022/03/13 04:14:52;;;;;;;22.95;12.85;;;;;;;1.12;75.89;99248.09;5053567;28;20468;-53
2022/03/13 04:17:17;;;;;;;27.10;14.18;;;;;;;0.95;76.49;99260.66;5055614;28;20033;-53
2022/03/13 04:19:43;;;;;;;21.60;11.77;;;;;;;0.72;75.51;99262.50;5051844;28;20594;-53
2022/03/13 04:22:08;;;;;;;18.35;11.23;;;;;;;0.94;78.27;99259.00;5055931;28;20045;-53
2022/03/13 04:24:34;;;;;;;24.38;12.77;;;;;;;0.59;76.89;99266.56;5046371;28;20032;-53
2022/03/13 04:26:59;;;;;;;21.98;13.40;;;;;;;0.34;78.98;99273.03;5052180;28;20033;-53
2022/03/13 04:29:24;;;;;;;20.90;12.35;;;;;;;-0.05;78.34;99264.19;5053187;28;20028;-54
2022/03/13 04:31:52;;;;;;;20.42;12.30;;;;;;;0.12;82.17;99266.72;5057224;28;20086;-51
2022/03/13 04:34:18;;;;;;;23.08;13.55;;;;;;;0.23;79.16;99260.25;5056088;28;20036;-53
2022/03/13 04:36:44;;;;;;;22.92;13.68;;;;;;;0.25;79.19;99259.09;5054541;28;20470;-53
2022/03/13 04:39:09;;;;;;;24.60;13.85;;;;;;;0.13;78.62;99261.28;5069091;28;20387;-53
2022/03/13 04:41:35;;;;;;;22.10;12.35;;;;;;;0.36;77.92;99260.50;5053205;28;20025;-53
2022/03/13 04:44:00;;;;;;;23.73;12.05;;;;;;;0.52;75.78;99254.25;5056631;28;20037;-52
2022/03/13 04:46:26;;;;;;;28.42;13.10;;;;;;;0.45;75.76;99263.88;5050452;28;20036;-51
2022/03/13 04:48:53;;;;;;;20.48;12.30;;;;;;;0.35;78.44;99266.75;5051148;28;20438;-50
2022/03/13 04:51:21;;;;;;;20.73;11.90;;;;;;;0.12;77.55;99261.47;5050496;28;20029;-51
2022/03/13 04:53:47;;;;;;;22.65;12.98;;;;;;;-0.11;77.69;99266.69;5054191;28;20045;-52
2022/03/13 04:56:12;;;;;;;20.35;12.20;;;;;;;-0.08;77.99;99274.25;5081893;28;20036;-54
2022/03/13 04:58:38;;;;;;;18.55;11.25;;;;;;;0.04;76.71;99267.59;5059588;28;20083;-53
2022/03/13 05:01:03;;;;;;;18.45;11.43;;;;;;;0.48;73.86;99267.00;5061103;28;20036;-52
2022/03/13 05:03:32;;;;;;;23.10;11.77;;;;;;;0.55;75.39;99267.94;5056965;28;20024;-51
2022/03/13 05:05:57;;;;;;;20.15;10.95;;;;;;;0.42;73.69;99265.03;5052050;28;20149;-54
2022/03/13 05:08:23;;;;;;;20.70;12.00;;;;;;;0.47;74.67;99278.53;5053588;28;20086;-51
2022/03/13 05:10:49;;;;;;;25.25;12.50;;;;;;;0.48;76.38;99267.00;5050115;28;20089;-54
2022/03/13 05:13:15;;;;;;;23.05;12.00;;;;;;;0.46;74.36;99268.16;5053336;28;20024;-54
2022/03/13 05:15:42;;;;;;;22.95;13.18;;;;;;;0.36;74.68;99266.56;5053906;28;20025;-53
2022/03/13 05:18:08;;;;;;;22.58;11.98;;;;;;;0.21;75.74;99268.34;5058854;28;20554;-51
2022/03/13 05:20:35;;;;;;;21.75;12.82;;;;;;;0.07;78.51;99277.78;5057389;28;20020;-51
2022/03/13 05:23:04;;;;;;;22.75;13.52;;;;;;;-0.20;78.15;99291.44;5054869;28;20036;-51
2022/03/13 05:25:31;;;;;;;24.90;13.52;;;;;;;-0.33;79.06;99277.00;5050113;28;20379;-51
2022/03/13 05:27:57;;;;;;;22.30;12.43;;;;;;;-0.22;79.75;99279.25;5053788;28;20068;-52
2022/03/13 05:30:23;;;;;;;23.23;12.65;;;;;;;-0.10;78.84;99281.50;5048793;28;20542;-52
2022/03/13 05:32:48;;;;;;;20.88;11.88;;;;;;;0.34;78.37;99267.75;5062238;28;20016;-52
2022/03/13 05:35:14;;;;;;;23.23;12.40;;;;;;;0.36;77.97;99269.22;5051104;28;20031;-50
2022/03/13 05:37:40;;;;;;;23.05;13.13;;;;;;;0.16;77.45;99271.47;5048547;28;20433;-53
2022/03/13 05:40:06;;;;;;;23.30;13.02;;;;;;;0.06;77.95;99278.78;5060049;28;20084;-53
2022/03/13 05:42:31;;;;;;;21.15;12.38;;;;;;;-0.18;78.65;99278.91;5050203;28;20024;-53
2022/03/13 05:44:57;;;;;;;22.45;12.48;;;;;;;-0.03;78.40;99271.91;5058517;28;20114;-53
2022/03/13 05:47:23;;;;;;;19.63;11.93;;;;;;;0.11;77.46;99281.72;5056326;28;20122;-51
2022/03/13 05:49:48;;;;;;;18.98;11.82;;;;;;;0.23;75.95;99283.97;5050851;28;20029;-51
2022/03/13 05:52:15;;;;;;;21.50;12.43;;;;;;;0.39;75.57;99289.94;5054628;28;20049;-50
2022/03/13 05:54:43;;;;;;;24.23;11.95;;;;;;;0.44;75.68;99281.53;5057015;28;20475;-52
2022/03/13 05:57:10;;;;;;;23.50;12.48;;;;;;;0.45;78.94;99285.81;5049644;28;20059;-54
2022/03/13 05:59:36;;;;;;;19.17;11.70;;;;;;;0.75;74.87;99285.88;5053885;28;20033;-53
2022/03/13 06:02:04;;;;;;;16.35;10.73;;;;;;;1.06;69.53;99291.88;5055922;28;20037;-53
2022/03/13 06:04:30;;;;;;;20.30;11.55;;;;;;;1.22;68.45;99300.66;5050103;28;20529;-54
2022/03/13 06:06:56;;;;;;;22.25;12.65;;;;;;;1.30;71.02;99305.88;5055348;28;20048;-54
2022/03/13 06:09:22;;;;;;;24.90;13.90;;;;;;;0.85;74.57;99297.88;5050205;28;20045;-51
2022/03/13 06:11:47;;;;;;;20.40;12.88;;;;;;;0.99;75.33;99303.34;5055648;28;20036;-52
2022/03/13 06:14:12;;;;;;;23.85;12.55;;;;;;;1.14;76.65;99301.56;5053823;28;20033;-53
2022/03/13 06:16:38;;;;;;;23.23;13.38;;;;;;;1.17;72.97;99292.44;5054979;28;20029;-52
2022/03/13 06:19:03;;;;;;;26.63;14.13;;;;;;;1.12;73.07;99290.34;5054153;28;20398;-53
2022/03/13 06:21:29;;;;;;;25.23;12.88;;;;;;;1.23;71.92;99289.91;5061839;28;20039;-55
2022/03/13 06:23:54;;;;;;;23.38;13.32;;;;;;;1.41;71.61;99289.56;5052681;28;20047;-54
2022/03/13 06:26:20;;;;;;;26.15;13.27;;;;;;;1.49;71.27;99300.03;5052454;28;20028;-51
2022/03/13 06:28:45;;;;;;;22.13;12.65;;;;;;;1.47;70.46;99288.84;5050051;28;20395;-53
2022/03/13 06:31:12;;;;;;;26.60;13.73;;;;;;;1.84;70.44;99288.91;5047396;28;20513;-50
2022/03/13 06:33:37;;;;;;;20.10;11.73;;;;;;;1.74;69.87;99281.25;5059265;28;20040;-53
2022/03/13 06:36:03;;;;;;;20.88;13.05;;;;;;;2.02;69.36;99299.94;5056830;28;20021;-53
2022/03/13 06:38:29;;;;;;;23.40;13.32;;;;;;;2.06;70.36;99303.00;5055673;28;20032;-54
2022/03/13 06:40:54;;;;;;;28.58;14.15;;;;;;;2.01;71.10;99292.16;5048485;28;20088;-53
2022/03/13 06:43:20;;;;;;;24.08;13.77;;;;;;;3.02;68.38;99295.59;5045934;28;20028;-53
2022/03/13 06:45:45;;;;;;;22.90;13.15;;;;;;;1.88;69.59;99300.75;5053425;28;20029;-53
2022/03/13 06:48:13;;;;;;;23.17;14.93;;;;;;;1.84;69.26;99307.41;5056161;28;20387;-53
2022/03/13 06:50:38;;;;;;;27.10;14.73;;;;;;;2.06;69.87;99301.19;5053248;28;20033;-53
2022/03/13 06:53:03;;;;;;;23.90;14.32;;;;;;;1.92;70.29;99300.22;5052258;28;20040;-54
2022/03/13 06:55:29;;;;;;;29.48;15.23;;;;;;;2.03;71.10;99306.03;5048427;28;20083;-53
2022/03/13 06:57:55;;;;;;;29.05;15.63;;;;;;;2.02;71.17;99309.66;5051411;28;20115;-53
2022/03/13 07:00:20;;;;;;;25.15;14.32;;;;;;;2.06;71.81;99316.22;5056392;28;20016;-53
2022/03/13 07:02:45;;;;;;;25.25;14.88;;;;;;;2.16;71.58;99316.75;5057070;28;20050;-52
2022/03/13 07:05:11;;;;;;;24.35;15.15;;;;;;;2.40;71.08;99309.47;5051817;28;20443;-54
2022/03/13 07:07:36;;;;;;;26.30;15.50;;;;;;;2.35;70.75;99315.34;5083526;28;20475;-54
2022/03/13 07:10:04;;;;;;;25.15;15.88;;;;;;;2.32;70.70;99316.53;5049193;28;20032;-54
2022/03/13 07:12:29;;;;;;;28.95;17.35;;;;;;;2.55;70.01;99307.63;5051768;28;20048;-52
2022/03/13 07:14:57;;;;;;;29.52;16.48;;;;;;;2.73;69.52;99307.97;5049008;28;20059;-53
2022/03/13 07:17:23;;;;;;;29.80;17.75;;;;;;;3.06;69.12;99315.38;5055019;28;20029;-53
2022/03/13 07:19:48;;;;;;;28.02;16.77;;;;;;;3.12;68.43;99317.28;5054538;28;20505;-54
2022/03/13 07:22:14;;;;;;;27.90;15.65;;;;;;;3.41;67.24;99318.09;5056201;28;20462;-53
2022/03/13 07:24:40;;;;;;;29.85;14.95;;;;;;;3.39;67.28;99322.75;5054683;28;20592;-53
2022/03/13 07:27:05;;;;;;;25.63;15.05;;;;;;;3.33;69.14;99318.25;5054138;28;20163;-53
2022/03/13 07:29:31;;;;;;;22.50;13.77;;;;;;;3.74;67.96;99322.78;5053293;28;20036;-53
2022/03/13 07:31:56;;;;;;;25.15;15.00;;;;;;;3.89;66.09;99318.16;5062766;28;20802;-53
2022/03/13 07:34:25;;;;;;;23.85;14.40;;;;;;;3.99;65.73;99328.41;5061062;28;20032;-52
2022/03/13 07:36:53;;;;;;;32.42;15.40;;;;;;;3.93;65.39;99313.28;5053291;28;20032;-52
2022/03/13 07:39:21;;;;;;;22.20;14.43;;;;;;;4.11;65.52;99324.16;5047774;28;20037;-53
2022/03/13 07:41:46;;;;;;;21.05;13.27;;;;;;;4.06;65.80;99313.34;5053756;28;20021;-53
2022/03/13 07:44:11;;;;;;;24.40;14.65;;;;;;;4.08;67.08;99320.09;5048574;28;20032;-52
2022/03/13 07:46:37;;;;;;;26.27;15.32;;;;;;;4.43;65.46;99309.38;5061238;28;20451;-51
2022/03/13 07:49:02;;;;;;;29.02;15.30;;;;;;;4.66;65.07;99310.84;5048875;28;20090;-53
2022/03/13 07:51:28;;;;;;;24.73;15.60;;;;;;;4.54;64.56;99314.13;5053822;28;20033;-53
2022/03/13 07:53:53;;;;;;;27.02;14.60;;;;;;;4.66;64.20;99314.31;5052602;28;20448;-53
2022/03/13 07:56:19;;;;;;;25.40;14.80;;;;;;;5.06;62.86;99321.50;5051268;28;20028;-53
2022/03/13 07:58:45;;;;;;;21.40;14.38;;;;;;;5.22;61.86;99320.28;5048283;28;20028;-52
2022/03/13 08:01:10;;;;;;;30.65;15.82;;;;;;;6.17;58.57;99328.72;5048301;28;20040;-52
2022/03/13 08:03:36;;;;;;;23.08;15.52;;;;;;;7.33;55.18;99330.19;5052594;28;20028;-53
2022/03/13 08:06:02;;;;;;;23.33;14.93;;;;;;;7.83;53.37;99335.44;5067206;28;20086;-51
2022/03/13 08:08:28;;;;;;;30.45;17.38;;;;;;;8.46;51.71;99325.50;5057784;28;20033;-53
2022/03/13 08:10:53;;;;;;;26.50;16.95;;;;;;;8.20;52.06;99330.09;5051077;28;20090;-53
2022/03/13 08:13:19;;;;;;;25.25;14.82;;;;;;;8.23;53.38;99324.31;5070842;28;20387;-53
2022/03/13 08:15:44;;;;;;;21.67;13.60;;;;;;;7.67;53.93;99328.84;5055170;28;20025;-53
2022/03/13 08:18:10;;;;;;;21.02;13.93;;;;;;;8.04;51.94;99330.69;5061498;28;20028;-50
2022/03/13 08:20:36;;;;;;;21.80;13.63;;;;;;;7.40;53.61;99333.63;5062711;28;20034;-53
2022/03/13 08:23:01;;;;;;;29.58;14.60;;;;;;;8.54;50.87;99336.69;5055121;28;20028;-53
2022/03/13 08:25:27;;;;;;;21.80;14.63;;;;;;;8.07;51.76;99332.94;5050128;28;20029;-52
2022/03/13 08:27:52;;;;;;;24.38;13.85;;;;;;;8.35;50.38;99330.53;5063895;28;20032;-52
2022/03/13 08:30:18;;;;;;;18.90;12.98;;;;;;;9.19;48.07;99317.22;5051961;28;20037;-53
2022/03/13 08:32:43;;;;;;;24.40;14.45;;;;;;;8.88;48.34;99325.53;5058525;28;20041;-52
2022/03/13 08:35:09;;;;;;;25.38;14.73;;;;;;;9.49;45.85;99329.69;5055755;28;20443;-50
2022/03/13 08:37:35;;;;;;;21.13;13.10;;;;;;;9.38;45.24;99330.47;5056865;28;20148;-50
2022/03/13 08:40:03;;;;;;;21.67;13.20;;;;;;;9.16;45.49;99323.03;5058313;28;20035;-51
2022/03/13 08:42:30;;;;;;;22.23;13.48;;;;;;;9.92;44.63;99323.13;5056119;28;20080;-51
2022/03/13 08:44:56;;;;;;;24.73;14.48;;;;;;;9.69;45.97;99315.94;5065201;28;20112;-53
2022/03/13 08:47:21;;;;;;;23.55;13.60;;;;;;;9.90;44.82;99315.31;5056709;28;20025;-52
2022/03/13 08:49:47;;;;;;;22.67;14.82;;;;;;;9.42;46.44;99313.72;5056727;28;20029;-53
2022/03/13 08:52:12;;;;;;;22.17;13.85;;;;;;;9.87;46.14;99312.31;5053191;28;20037;-53
2022/03/13 08:54:38;;;;;;;20.63;13.70;;;;;;;10.70;43.73;99326.25;5050140;28;20051;-50
2022/03/13 08:57:03;;;;;;;24.73;14.10;;;;;;;10.58;42.74;99319.09;5049825;28;20028;-53
2022/03/13 08:59:35;;;;;;;22.65;14.43;;;;;;;10.61;43.80;99323.16;5046643;28;20106;-50
2022/03/13 09:02:00;;;;;;;21.85;13.75;;;;;;;10.04;44.56;99323.09;5060415;28;20086;-52
2022/03/13 09:04:26;;;;;;;22.92;14.35;;;;;;;10.45;43.46;99324.72;5056480;28;20040;-53
2022/03/13 09:06:51;;;;;;;22.48;14.52;;;;;;;10.18;43.86;99311.03;5056186;28;20032;-52
2022/03/13 09:09:19;;;;;;;23.98;14.55;;;;;;;10.74;43.27;99311.34;5066568;28;20466;-53
2022/03/13 09:11:47;;;;;;;22.77;14.43;;;;;;;11.23;42.06;99314.28;5058679;28;20032;-53
2022/03/13 09:14:12;;;;;;;23.42;15.18;;;;;;;12.21;40.07;99314.59;5049542;28;20325;-54
2022/03/13 09:16:39;;;;;;;22.98;14.45;;;;;;;12.30;39.72;99305.03;5057883;28;20031;-52
2022/03/13 09:19:05;;;;;;;24.15;15.38;;;;;;;12.42;37.46;99304.06;5055546;28;20151;-53
2022/03/13 09:21:31;;;;;;;22.45;13.80;;;;;;;13.66;36.81;99309.44;5056909;28;20523;-53
2022/03/13 09:23:57;;;;;;;28.15;15.23;;;;;;;12.82;35.39;99313.59;5055774;28;20028;-54
2022/03/13 09:26:22;;;;;;;23.63;15.88;;;;;;;11.60;37.45;99308.38;5055604;28;20021;-52
2022/03/13 09:28:48;;;;;;;27.15;15.23;;;;;;;12.22;36.60;99310.81;5052607;28;20616;-53
2022/03/13 09:31:14;;;;;;;25.05;15.45;;;;;;;12.36;36.74;99305.88;5056741;28;20029;-51
2022/03/13 09:33:39;;;;;;;23.70;16.00;;;;;;;12.81;36.20;99304.72;5068897;28;20074;-51
2022/03/13 09:36:04;;;;;;;27.88;15.63;;;;;;;13.86;35.17;99312.22;5053144;28;20198;-53
2022/03/13 09:38:30;;;;;;;25.23;15.07;;;;;;;13.59;35.36;99307.75;5082065;28;20032;-53
2022/03/13 09:40:55;;;;;;;26.67;16.13;;;;;;;13.38;36.65;99303.34;5052690;28;20403;-52
2022/03/13 09:43:21;;;;;;;25.20;16.02;;;;;;;14.19;34.12;99310.22;5053403;28;20032;-51
2022/03/13 09:45:48;;;;;;;28.00;16.45;;;;;;;14.30;34.48;99306.47;5055196;28;20123;-52
2022/03/13 09:48:15;;;;;;;24.58;15.57;;;;;;;14.39;33.87;99307.56;5053842;28;20024;-53
2022/03/13 09:50:42;;;;;;;25.30;16.38;;;;;;;13.15;34.73;99297.22;5049430;28;20060;-53
2022/03/13 09:53:08;;;;;;;23.00;15.50;;;;;;;14.09;34.24;99300.19;5060514;28;20131;-52
2022/03/13 09:55:33;;;;;;;27.80;15.77;;;;;;;13.95;34.09;99307.97;5054911;28;20029;-53
2022/03/13 09:57:58;;;;;;;26.90;15.55;;;;;;;13.21;35.81;99306.13;5051795;28;20028;-53
2022/03/13 10:00:25;;;;;;;25.08;15.48;;;;;;;14.06;34.04;99299.94;5088723;28;20033;-52
2022/03/13 10:02:54;;;;;;;24.33;15.23;;;;;;;14.36;33.81;99299.22;5052043;28;20079;-53
2022/03/13 10:05:20;;;;;;;24.35;14.80;;;;;;;14.73;33.70;99290.97;5061300;28;20033;-53
2022/03/13 10:08:02;;;;;;;26.45;15.32;;;;;;;15.12;32.55;99290.44;5052583;28;20060;-53
2022/03/13 10:10:32;;;;;;;25.45;15.18;;;;;;;14.40;32.66;99292.19;5054040;28;20033;-53
2022/03/13 10:12:59;;;;;;;22.48;15.13;;;;;;;13.97;33.49;99286.94;5054834;28;20035;-53
2022/03/13 10:15:25;;;;;;;27.85;15.85;;;;;;;14.92;32.61;99295.81;5053862;28;20037;-53
2022/03/13 10:17:51;;;;;;;25.02;15.60;;;;;;;15.00;30.46;99297.97;5052998;28;20036;-52
2022/03/13 10:20:20;;;;;;;23.42;13.63;;;;;;;13.92;30.44;99289.59;5060910;28;20036;-52
2022/03/13 10:22:48;;;;;;;25.27;14.68;;;;;;;13.53;31.12;99287.28;5057395;28;20052;-53
2022/03/13 10:25:15;;;;;;;22.13;13.27;;;;;;;14.55;29.48;99280.66;5056031;28;20497;-53
2022/03/13 10:27:43;;;;;;;26.00;14.77;;;;;;;13.95;31.08;99278.34;5049147;28;20527;-51
2022/03/13 10:30:09;;;;;;;25.30;14.32;;;;;;;14.62;31.02;99275.81;5059585;28;20056;-54
2022/03/13 10:32:36;;;;;;;23.77;14.38;;;;;;;13.96;30.58;99276.44;5048219;28;20447;-54
2022/03/13 10:35:01;;;;;;;22.08;14.07;;;;;;;13.40;30.66;99270.75;5055025;28;20081;-51
2022/03/13 10:37:42;;;;;;;23.70;13.43;;;;;;;14.07;30.24;99271.88;5054044;28;20033;-52
2022/03/13 10:40:13;;;;;;;23.55;13.25;;;;;;;14.23;29.97;99279.78;5049626;28;20124;-52
2022/03/13 10:42:43;;;;;;;27.27;14.48;;;;;;;13.50;30.94;99266.22;5055048;28;20075;-50
2022/03/13 10:45:31;;;;;;;21.05;13.35;;;;;;;13.53;31.42;99271.13;5055068;28;20032;-53
2022/03/13 10:48:21;;;;;;;22.17;14.05;;;;;;;12.40;34.23;99265.88;5056854;28;20459;-54
2022/03/13 10:50:47;;;;;;;24.17;13.68;;;;;;;13.26;32.25;99260.41;5048865;28;20156;-55
2022/03/13 10:53:13;;;;;;;25.70;14.02;;;;;;;13.46;31.93;99267.84;5053624;28;20044;-52
2022/03/13 10:55:39;;;;;;;21.20;12.75;;;;;;;12.57;33.81;99257.69;5049746;28;20025;-51
2022/03/13 10:58:04;;;;;;;27.02;13.38;;;;;;;11.70;34.62;99260.19;5050635;28;20066;-53
2022/03/13 11:00:30;;;;;;;22.88;12.65;;;;;;;13.31;32.26;99257.78;5056511;28;20371;-55
2022/03/13 11:03:10;;;;;;;23.80;12.63;;;;;;;12.71;32.95;99254.34;5048811;28;20048;-55
2022/03/13 11:05:35;;;;;;;21.75;12.25;;;;;;;13.38;31.92;99249.50;5048485;28;20036;-55
2022/03/13 11:08:04;;;;;;;22.33;13.23;;;;;;;13.19;32.94;99248.25;5047360;28;20037;-52
2022/03/13 11:10:36;;;;;;;21.83;12.55;;;;;;;11.98;34.01;99248.50;5051912;28;20267;-52
2022/03/13 11:13:02;;;;;;;22.48;13.02;;;;;;;11.43;34.85;99244.84;5055518;28;20298;-53
2022/03/13 11:15:29;;;;;;;21.08;12.80;;;;;;;11.99;34.78;99235.88;5040749;28;20375;-54
2022/03/13 11:17:56;;;;;;;23.52;12.80;;;;;;;12.48;35.17;99235.84;5052521;28;20511;-54
2022/03/13 11:20:21;;;;;;;26.95;12.25;;;;;;;13.38;32.88;99236.84;5050654;28;20026;-55